^^
Meteo Knjazevac Station Historical Data
Daily Summary for August 3, 2021 Units:  English    Metric   Both
Daily Weekly Monthly Yearly Custom
  High: Low: Average:
Temperature: 61.4 °F 57.2 °F 58.6 °F
Dew Point: 57.1 °F 54.6 °F 55.9 °F
Humidity: 93% 86% 91%
Wind Speed: 3mph 0mph 0.9mph
Wind Gust: 7mph - -
Wind- - SE
Pressure: 30.04 in 30.02 in -
Precipitation: 0.00 in    
Historical Graphs
 
 
Tabular Data for August 3, 2021
Time Temperature Dew Point Pressure Wind Wind Speed Wind Gust Humidity Rainfall Rate (Hourly) solar Conditions
00:00 61.4 °F 57.1 °F 30.03 in WNW 1 mph 3 mph 86% 0.00 in 0 W/m2
00:10 61.2 °F 56.9 °F 30.02 in Calm   2 mph 86% 0.00 in 0 W/m2
00:20 60.6 °F 57 °F 30.03 in Calm   3 mph 88% 0.00 in 0 W/m2
00:30 60.4 °F 56.9 °F 30.03 in Calm   2 mph 88% 0.00 in 0 W/m2
00:40 60.3 °F 56.7 °F 30.02 in Calm   2 mph 88% 0.00 in 0 W/m2
00:50 60.3 °F 56.7 °F 30.03 in Calm   2 mph 88% 0.00 in 0 W/m2
01:00 60.1 °F 56.8 °F 30.02 in Calm   2 mph 89% 0.00 in 0 W/m2
01:10 60.1 °F 56.5 °F 30.02 in Calm   2 mph 88% 0.00 in 0 W/m2
01:20 59.7 °F 56.5 °F 30.03 in Calm   2 mph 89% 0.00 in 0 W/m2
01:30 59.5 °F 56.3 °F 30.03 in NNW 1 mph 2 mph 89% 0.00 in 0 W/m2
01:40 59.2 °F 55.9 °F 30.02 in Calm   2 mph 89% 0.00 in 0 W/m2
01:50 59 °F 56.1 °F 30.02 in Calm   2 mph 90% 0.00 in 0 W/m2
02:00 58.6 °F 55.7 °F 30.02 in NNW 1 mph 2 mph 90% 0.00 in 0 W/m2
02:10 58.6 °F 55.7 °F 30.02 in NW 1 mph 2 mph 90% 0.00 in 0 W/m2
02:20 58.3 °F 55.4 °F 30.02 in Calm   2 mph 90% 0.00 in 0 W/m2
02:30 57.9 °F 55 °F 30.02 in Calm   2 mph 90% 0.00 in 0 W/m2
02:40 57.7 °F 55.1 °F 30.02 in North 2 mph 2 mph 91% 0.00 in 0 W/m2
02:50 57.7 °F 55.1 °F 30.02 in NE 2 mph 4 mph 91% 0.00 in 0 W/m2
03:00 57.9 °F 55.3 °F 30.02 in NE 2 mph 4 mph 91% 0.00 in 0 W/m2
03:10 57.7 °F 55.1 °F 30.02 in NNW 1 mph 3 mph 91% 0.00 in 0 W/m2
03:20 57.9 °F 55.9 °F 30.02 in NNE 1 mph 3 mph 93% 0.00 in 0 W/m2
03:30 58.1 °F 56.1 °F 30.02 in East 1 mph 5 mph 93% 0.00 in 0 W/m2
03:40 57.7 °F 55.7 °F 30.02 in Calm   2 mph 93% 0.00 in 0 W/m2
03:50 57.7 °F 55.7 °F 30.02 in Calm   3 mph 93% 0.00 in 0 W/m2
04:00 57.6 °F 55.5 °F 30.02 in WSW 1 mph 2 mph 93% 0.00 in 0 W/m2
04:10 57.2 °F 54.6 °F 30.03 in Calm   3 mph 91% 0.00 in 0 W/m2
04:20 57.2 °F 55.2 °F 30.03 in NE 2 mph 4 mph 93% 0.00 in 0 W/m2
04:30 57.4 °F 55.4 °F 30.03 in NE 2 mph 7 mph 93% 0.00 in 0 W/m2
04:40 57.7 °F 55.7 °F 30.03 in NE 3 mph 7 mph 93% 0.00 in 0 W/m2
04:50 57.9 °F 55.9 °F 30.03 in NE 2 mph 5 mph 93% 0.00 in 0 W/m2
05:00 58.1 °F 56.1 °F 30.03 in NE 3 mph 6 mph 93% 0.00 in 5 W/m2
05:10 57.9 °F 55.9 °F 30.03 in NNE 1 mph 4 mph 93% 0.00 in 8 W/m2
05:20 57.9 °F 55.9 °F 30.03 in North 2 mph 3 mph 93% 0.00 in 13 W/m2
05:30 58.1 °F 56.1 °F 30.04 in NE 1 mph 5 mph 93% 0.00 in 17 W/m2
05:40 58.1 °F 55.5 °F 30.03 in NE 2 mph 5 mph 91% 0.00 in 23 W/m2
Knjazevac, Serbia
Compliments of Weather Underground - 2 mb